sensor_id;sensor_type;location;lat;lon;timestamp;P1;durP1;ratioP1;P2;durP2;ratioP2
21038;SDS011;10678;51.002;4.786;2023-04-10T00:01:00;10.65;;;6.15;;
21038;SDS011;10678;51.002;4.786;2023-04-10T00:03:26;9.25;;;5.53;;
21038;SDS011;10678;51.002;4.786;2023-04-10T00:05:52;9.52;;;5.57;;
21038;SDS011;10678;51.002;4.786;2023-04-10T00:08:19;11.07;;;6.53;;
21038;SDS011;10678;51.002;4.786;2023-04-10T00:10:45;10.90;;;6.18;;
21038;SDS011;10678;51.002;4.786;2023-04-10T00:13:11;9.00;;;5.60;;
21038;SDS011;10678;51.002;4.786;2023-04-10T00:15:37;10.52;;;5.80;;
21038;SDS011;10678;51.002;4.786;2023-04-10T00:18:02;10.57;;;5.65;;
21038;SDS011;10678;51.002;4.786;2023-04-10T00:20:28;8.55;;;5.00;;
21038;SDS011;10678;51.002;4.786;2023-04-10T00:22:53;9.18;;;5.28;;
21038;SDS011;10678;51.002;4.786;2023-04-10T00:25:19;9.77;;;5.55;;
21038;SDS011;10678;51.002;4.786;2023-04-10T00:27:46;9.65;;;5.20;;
21038;SDS011;10678;51.002;4.786;2023-04-10T00:30:12;10.05;;;4.93;;
21038;SDS011;10678;51.002;4.786;2023-04-10T00:32:38;9.80;;;5.55;;
21038;SDS011;10678;51.002;4.786;2023-04-10T00:35:04;8.25;;;4.82;;
21038;SDS011;10678;51.002;4.786;2023-04-10T00:37:29;11.77;;;5.80;;
21038;SDS011;10678;51.002;4.786;2023-04-10T00:39:55;9.23;;;5.88;;
21038;SDS011;10678;51.002;4.786;2023-04-10T00:42:21;12.05;;;5.55;;
21038;SDS011;10678;51.002;4.786;2023-04-10T00:44:46;8.63;;;5.07;;
21038;SDS011;10678;51.002;4.786;2023-04-10T00:47:12;9.80;;;5.38;;
21038;SDS011;10678;51.002;4.786;2023-04-10T00:49:39;9.88;;;5.28;;
21038;SDS011;10678;51.002;4.786;2023-04-10T00:52:06;9.77;;;5.32;;
21038;SDS011;10678;51.002;4.786;2023-04-10T00:54:32;9.18;;;5.15;;
21038;SDS011;10678;51.002;4.786;2023-04-10T00:57:00;10.73;;;5.30;;
21038;SDS011;10678;51.002;4.786;2023-04-10T00:59:27;8.82;;;5.13;;
21038;SDS011;10678;51.002;4.786;2023-04-10T01:01:53;16.20;;;5.18;;
21038;SDS011;10678;51.002;4.786;2023-04-10T01:04:18;10.13;;;5.13;;
21038;SDS011;10678;51.002;4.786;2023-04-10T01:06:51;9.30;;;5.68;;
21038;SDS011;10678;51.002;4.786;2023-04-10T01:15:11;11.25;;;4.95;;
21038;SDS011;10678;51.002;4.786;2023-04-10T01:20:41;8.68;;;4.85;;
21038;SDS011;10678;51.002;4.786;2023-04-10T01:26:06;9.68;;;5.13;;
21038;SDS011;10678;51.002;4.786;2023-04-10T01:34:01;12.50;;;5.10;;
21038;SDS011;10678;51.002;4.786;2023-04-10T01:36:33;9.07;;;4.88;;
21038;SDS011;10678;51.002;4.786;2023-04-10T01:39:01;10.82;;;5.22;;
21038;SDS011;10678;51.002;4.786;2023-04-10T01:41:28;9.13;;;5.15;;
21038;SDS011;10678;51.002;4.786;2023-04-10T01:43:56;8.10;;;4.80;;
21038;SDS011;10678;51.002;4.786;2023-04-10T01:46:23;9.55;;;5.40;;
21038;SDS011;10678;51.002;4.786;2023-04-10T01:48:51;11.15;;;5.70;;
21038;SDS011;10678;51.002;4.786;2023-04-10T01:51:18;9.63;;;5.32;;
21038;SDS011;10678;51.002;4.786;2023-04-10T01:53:45;7.93;;;4.90;;
21038;SDS011;10678;51.002;4.786;2023-04-10T01:56:12;9.30;;;5.15;;
21038;SDS011;10678;51.002;4.786;2023-04-10T01:58:39;8.40;;;4.78;;
21038;SDS011;10678;51.002;4.786;2023-04-10T02:01:05;8.80;;;5.18;;
21038;SDS011;10678;51.002;4.786;2023-04-10T02:03:31;10.00;;;5.10;;
21038;SDS011;10678;51.002;4.786;2023-04-10T02:08:35;8.60;;;4.97;;
21038;SDS011;10678;51.002;4.786;2023-04-10T02:11:09;9.05;;;5.28;;
21038;SDS011;10678;51.002;4.786;2023-04-10T02:13:39;9.48;;;4.97;;
21038;SDS011;10678;51.002;4.786;2023-04-10T02:16:06;10.10;;;5.00;;
21038;SDS011;10678;51.002;4.786;2023-04-10T02:18:35;9.43;;;5.53;;
21038;SDS011;10678;51.002;4.786;2023-04-10T02:21:02;10.00;;;4.80;;
21038;SDS011;10678;51.002;4.786;2023-04-10T02:23:28;9.75;;;5.22;;
21038;SDS011;10678;51.002;4.786;2023-04-10T02:25:54;9.02;;;4.80;;
21038;SDS011;10678;51.002;4.786;2023-04-10T02:28:21;11.40;;;5.68;;
21038;SDS011;10678;51.002;4.786;2023-04-10T02:30:46;8.52;;;5.07;;
21038;SDS011;10678;51.002;4.786;2023-04-10T02:33:12;7.65;;;4.88;;
21038;SDS011;10678;51.002;4.786;2023-04-10T02:35:38;9.65;;;5.28;;
21038;SDS011;10678;51.002;4.786;2023-04-10T02:38:03;8.70;;;5.05;;
21038;SDS011;10678;51.002;4.786;2023-04-10T02:40:29;9.55;;;4.97;;
21038;SDS011;10678;51.002;4.786;2023-04-10T02:42:55;7.88;;;4.70;;
21038;SDS011;10678;51.002;4.786;2023-04-10T02:45:20;8.07;;;4.60;;
21038;SDS011;10678;51.002;4.786;2023-04-10T02:47:46;9.48;;;5.18;;
21038;SDS011;10678;51.002;4.786;2023-04-10T02:50:11;9.88;;;5.65;;
21038;SDS011;10678;51.002;4.786;2023-04-10T02:52:37;7.50;;;4.55;;
21038;SDS011;10678;51.002;4.786;2023-04-10T02:55:03;8.90;;;4.53;;
21038;SDS011;10678;51.002;4.786;2023-04-10T02:57:29;8.07;;;4.65;;
21038;SDS011;10678;51.002;4.786;2023-04-10T02:59:55;7.72;;;4.43;;
21038;SDS011;10678;51.002;4.786;2023-04-10T03:02:22;7.90;;;4.65;;
21038;SDS011;10678;51.002;4.786;2023-04-10T03:04:47;9.43;;;4.82;;
21038;SDS011;10678;51.002;4.786;2023-04-10T03:07:13;8.73;;;5.38;;
21038;SDS011;10678;51.002;4.786;2023-04-10T03:09:38;8.57;;;5.18;;
21038;SDS011;10678;51.002;4.786;2023-04-10T03:12:04;9.70;;;5.25;;
21038;SDS011;10678;51.002;4.786;2023-04-10T03:14:29;8.45;;;4.78;;
21038;SDS011;10678;51.002;4.786;2023-04-10T03:16:55;8.40;;;4.85;;
21038;SDS011;10678;51.002;4.786;2023-04-10T03:19:21;11.75;;;5.10;;
21038;SDS011;10678;51.002;4.786;2023-04-10T03:21:46;9.73;;;5.47;;
21038;SDS011;10678;51.002;4.786;2023-04-10T03:24:12;10.70;;;5.57;;
21038;SDS011;10678;51.002;4.786;2023-04-10T03:26:37;8.80;;;5.35;;
21038;SDS011;10678;51.002;4.786;2023-04-10T03:29:03;10.05;;;5.47;;
21038;SDS011;10678;51.002;4.786;2023-04-10T03:31:28;8.57;;;5.45;;
21038;SDS011;10678;51.002;4.786;2023-04-10T03:33:54;11.85;;;5.32;;
21038;SDS011;10678;51.002;4.786;2023-04-10T03:36:20;10.35;;;5.50;;
21038;SDS011;10678;51.002;4.786;2023-04-10T03:38:46;9.27;;;5.15;;
21038;SDS011;10678;51.002;4.786;2023-04-10T03:41:11;7.93;;;5.20;;
21038;SDS011;10678;51.002;4.786;2023-04-10T03:43:37;7.97;;;4.63;;
21038;SDS011;10678;51.002;4.786;2023-04-10T03:46:03;9.10;;;5.03;;
21038;SDS011;10678;51.002;4.786;2023-04-10T03:48:29;9.65;;;5.20;;
21038;SDS011;10678;51.002;4.786;2023-04-10T03:50:56;9.13;;;5.35;;
21038;SDS011;10678;51.002;4.786;2023-04-10T03:53:22;9.35;;;5.57;;
21038;SDS011;10678;51.002;4.786;2023-04-10T03:55:48;7.93;;;4.93;;
21038;SDS011;10678;51.002;4.786;2023-04-10T03:58:16;7.35;;;4.35;;
21038;SDS011;10678;51.002;4.786;2023-04-10T04:00:42;9.07;;;5.25;;
21038;SDS011;10678;51.002;4.786;2023-04-10T04:03:08;8.77;;;4.40;;
21038;SDS011;10678;51.002;4.786;2023-04-10T04:05:33;8.45;;;4.75;;
21038;SDS011;10678;51.002;4.786;2023-04-10T04:07:59;8.25;;;4.50;;
21038;SDS011;10678;51.002;4.786;2023-04-10T04:10:25;10.00;;;5.25;;
21038;SDS011;10678;51.002;4.786;2023-04-10T04:12:50;8.32;;;4.95;;
21038;SDS011;10678;51.002;4.786;2023-04-10T04:15:16;7.90;;;4.55;;
21038;SDS011;10678;51.002;4.786;2023-04-10T04:17:42;9.52;;;5.22;;
21038;SDS011;10678;51.002;4.786;2023-04-10T04:20:07;8.65;;;5.00;;
21038;SDS011;10678;51.002;4.786;2023-04-10T04:22:33;8.23;;;5.00;;
21038;SDS011;10678;51.002;4.786;2023-04-10T04:24:59;8.52;;;4.85;;
21038;SDS011;10678;51.002;4.786;2023-04-10T04:27:24;9.05;;;4.78;;
21038;SDS011;10678;51.002;4.786;2023-04-10T04:29:50;8.57;;;4.85;;
21038;SDS011;10678;51.002;4.786;2023-04-10T04:32:15;8.32;;;4.95;;
21038;SDS011;10678;51.002;4.786;2023-04-10T04:34:41;8.63;;;4.82;;
21038;SDS011;10678;51.002;4.786;2023-04-10T04:37:07;7.85;;;4.43;;
21038;SDS011;10678;51.002;4.786;2023-04-10T04:39:32;9.40;;;5.68;;
21038;SDS011;10678;51.002;4.786;2023-04-10T04:41:58;7.68;;;4.43;;
21038;SDS011;10678;51.002;4.786;2023-04-10T04:44:23;8.85;;;5.20;;
21038;SDS011;10678;51.002;4.786;2023-04-10T04:46:49;8.73;;;4.97;;
21038;SDS011;10678;51.002;4.786;2023-04-10T04:49:14;7.55;;;4.32;;
21038;SDS011;10678;51.002;4.786;2023-04-10T04:51:40;8.30;;;5.25;;
21038;SDS011;10678;51.002;4.786;2023-04-10T04:54:05;10.13;;;5.63;;
21038;SDS011;10678;51.002;4.786;2023-04-10T04:56:31;10.23;;;5.05;;
21038;SDS011;10678;51.002;4.786;2023-04-10T04:58:57;10.20;;;5.25;;
21038;SDS011;10678;51.002;4.786;2023-04-10T05:01:22;8.82;;;5.53;;
21038;SDS011;10678;51.002;4.786;2023-04-10T05:03:48;10.02;;;6.20;;
21038;SDS011;10678;51.002;4.786;2023-04-10T05:06:14;8.77;;;4.90;;
21038;SDS011;10678;51.002;4.786;2023-04-10T05:08:40;10.88;;;5.05;;
21038;SDS011;10678;51.002;4.786;2023-04-10T05:11:05;9.30;;;5.10;;
21038;SDS011;10678;51.002;4.786;2023-04-10T05:13:31;9.32;;;5.45;;
21038;SDS011;10678;51.002;4.786;2023-04-10T05:15:57;8.85;;;5.22;;
21038;SDS011;10678;51.002;4.786;2023-04-10T05:18:22;12.30;;;5.43;;
21038;SDS011;10678;51.002;4.786;2023-04-10T05:20:48;10.60;;;5.70;;
21038;SDS011;10678;51.002;4.786;2023-04-10T05:23:14;9.35;;;5.25;;
21038;SDS011;10678;51.002;4.786;2023-04-10T05:25:40;11.65;;;5.50;;
21038;SDS011;10678;51.002;4.786;2023-04-10T05:28:06;10.63;;;5.50;;
21038;SDS011;10678;51.002;4.786;2023-04-10T05:30:31;9.18;;;6.40;;
21038;SDS011;10678;51.002;4.786;2023-04-10T05:32:57;7.53;;;5.07;;
21038;SDS011;10678;51.002;4.786;2023-04-10T05:35:22;9.75;;;5.63;;
21038;SDS011;10678;51.002;4.786;2023-04-10T05:37:48;12.60;;;4.80;;
21038;SDS011;10678;51.002;4.786;2023-04-10T05:40:14;9.45;;;5.93;;
21038;SDS011;10678;51.002;4.786;2023-04-10T05:42:40;8.45;;;4.72;;
21038;SDS011;10678;51.002;4.786;2023-04-10T05:45:05;8.75;;;5.13;;
21038;SDS011;10678;51.002;4.786;2023-04-10T05:47:31;8.15;;;5.03;;
21038;SDS011;10678;51.002;4.786;2023-04-10T05:49:57;9.45;;;5.05;;
21038;SDS011;10678;51.002;4.786;2023-04-10T05:52:22;8.30;;;5.18;;
21038;SDS011;10678;51.002;4.786;2023-04-10T05:54:48;8.65;;;4.80;;
21038;SDS011;10678;51.002;4.786;2023-04-10T05:57:15;9.73;;;5.32;;
21038;SDS011;10678;51.002;4.786;2023-04-10T05:59:41;9.18;;;4.97;;
21038;SDS011;10678;51.002;4.786;2023-04-10T06:02:07;8.32;;;5.18;;
21038;SDS011;10678;51.002;4.786;2023-04-10T06:04:32;7.68;;;4.57;;
21038;SDS011;10678;51.002;4.786;2023-04-10T06:06:58;9.35;;;5.25;;
21038;SDS011;10678;51.002;4.786;2023-04-10T06:09:23;9.05;;;4.80;;
21038;SDS011;10678;51.002;4.786;2023-04-10T06:11:49;8.93;;;5.40;;
21038;SDS011;10678;51.002;4.786;2023-04-10T06:14:16;10.18;;;6.13;;
21038;SDS011;10678;51.002;4.786;2023-04-10T06:16:43;8.32;;;5.00;;
21038;SDS011;10678;51.002;4.786;2023-04-10T06:19:09;9.80;;;5.68;;
21038;SDS011;10678;51.002;4.786;2023-04-10T06:21:35;9.23;;;5.25;;
21038;SDS011;10678;51.002;4.786;2023-04-10T06:24:01;8.25;;;4.85;;
21038;SDS011;10678;51.002;4.786;2023-04-10T06:26:26;9.02;;;5.07;;
21038;SDS011;10678;51.002;4.786;2023-04-10T06:28:52;10.40;;;5.30;;
21038;SDS011;10678;51.002;4.786;2023-04-10T06:31:18;9.23;;;5.07;;
21038;SDS011;10678;51.002;4.786;2023-04-10T06:33:47;12.00;;;5.07;;
21038;SDS011;10678;51.002;4.786;2023-04-10T06:36:13;9.82;;;5.50;;
21038;SDS011;10678;51.002;4.786;2023-04-10T06:38:39;7.90;;;5.35;;
21038;SDS011;10678;51.002;4.786;2023-04-10T06:41:05;10.15;;;5.40;;
21038;SDS011;10678;51.002;4.786;2023-04-10T06:43:34;9.15;;;5.43;;
21038;SDS011;10678;51.002;4.786;2023-04-10T06:46:00;9.68;;;4.57;;
21038;SDS011;10678;51.002;4.786;2023-04-10T06:48:28;9.02;;;5.47;;
21038;SDS011;10678;51.002;4.786;2023-04-10T06:50:53;7.50;;;4.75;;
21038;SDS011;10678;51.002;4.786;2023-04-10T06:53:19;9.32;;;5.35;;
21038;SDS011;10678;51.002;4.786;2023-04-10T06:55:44;7.72;;;4.65;;
21038;SDS011;10678;51.002;4.786;2023-04-10T06:58:10;8.45;;;4.88;;
21038;SDS011;10678;51.002;4.786;2023-04-10T07:00:36;9.00;;;4.97;;
21038;SDS011;10678;51.002;4.786;2023-04-10T07:03:02;8.38;;;4.70;;
21038;SDS011;10678;51.002;4.786;2023-04-10T07:05:28;10.23;;;5.55;;
21038;SDS011;10678;51.002;4.786;2023-04-10T07:07:53;8.45;;;5.20;;
21038;SDS011;10678;51.002;4.786;2023-04-10T07:10:19;9.30;;;5.60;;
21038;SDS011;10678;51.002;4.786;2023-04-10T07:12:45;7.43;;;4.60;;
21038;SDS011;10678;51.002;4.786;2023-04-10T07:15:10;10.02;;;5.38;;
21038;SDS011;10678;51.002;4.786;2023-04-10T07:17:36;8.98;;;5.28;;
21038;SDS011;10678;51.002;4.786;2023-04-10T07:20:02;8.43;;;4.90;;
21038;SDS011;10678;51.002;4.786;2023-04-10T07:22:28;9.35;;;5.13;;
21038;SDS011;10678;51.002;4.786;2023-04-10T07:24:55;7.55;;;4.63;;
21038;SDS011;10678;51.002;4.786;2023-04-10T07:27:21;8.75;;;5.22;;
21038;SDS011;10678;51.002;4.786;2023-04-10T07:29:48;8.82;;;5.00;;
21038;SDS011;10678;51.002;4.786;2023-04-10T07:32:14;8.27;;;5.07;;
21038;SDS011;10678;51.002;4.786;2023-04-10T07:34:40;8.10;;;4.80;;
21038;SDS011;10678;51.002;4.786;2023-04-10T07:37:06;7.20;;;4.50;;
21038;SDS011;10678;51.002;4.786;2023-04-10T07:39:31;7.38;;;4.55;;
21038;SDS011;10678;51.002;4.786;2023-04-10T07:41:57;7.75;;;4.78;;
21038;SDS011;10678;51.002;4.786;2023-04-10T07:44:23;8.45;;;5.22;;
21038;SDS011;10678;51.002;4.786;2023-04-10T07:46:50;8.90;;;4.82;;
21038;SDS011;10678;51.002;4.786;2023-04-10T07:49:16;8.90;;;4.78;;
21038;SDS011;10678;51.002;4.786;2023-04-10T07:51:42;8.80;;;5.00;;
21038;SDS011;10678;51.002;4.786;2023-04-10T07:54:07;8.75;;;4.50;;
21038;SDS011;10678;51.002;4.786;2023-04-10T07:56:33;8.25;;;5.00;;
21038;SDS011;10678;51.002;4.786;2023-04-10T07:58:59;7.97;;;4.75;;
21038;SDS011;10678;51.002;4.786;2023-04-10T08:01:25;7.90;;;4.47;;
21038;SDS011;10678;51.002;4.786;2023-04-10T08:03:51;7.63;;;4.65;;
21038;SDS011;10678;51.002;4.786;2023-04-10T08:06:17;7.93;;;4.75;;
21038;SDS011;10678;51.002;4.786;2023-04-10T08:08:43;8.55;;;4.82;;
21038;SDS011;10678;51.002;4.786;2023-04-10T08:11:29;7.85;;;4.57;;
21038;SDS011;10678;51.002;4.786;2023-04-10T08:13:57;10.00;;;5.10;;
21038;SDS011;10678;51.002;4.786;2023-04-10T08:16:30;7.82;;;4.45;;
21038;SDS011;10678;51.002;4.786;2023-04-10T08:18:57;8.65;;;4.30;;
21038;SDS011;10678;51.002;4.786;2023-04-10T08:21:24;7.35;;;4.32;;
21038;SDS011;10678;51.002;4.786;2023-04-10T08:23:55;9.27;;;4.40;;
21038;SDS011;10678;51.002;4.786;2023-04-10T08:26:25;7.07;;;4.35;;
21038;SDS011;10678;51.002;4.786;2023-04-10T08:28:52;8.25;;;4.85;;
21038;SDS011;10678;51.002;4.786;2023-04-10T08:31:19;13.90;;;4.47;;
21038;SDS011;10678;51.002;4.786;2023-04-10T08:33:46;7.25;;;4.05;;
21038;SDS011;10678;51.002;4.786;2023-04-10T08:36:12;7.53;;;4.45;;
21038;SDS011;10678;51.002;4.786;2023-04-10T08:38:41;8.27;;;4.75;;
21038;SDS011;10678;51.002;4.786;2023-04-10T08:41:14;7.85;;;4.60;;
21038;SDS011;10678;51.002;4.786;2023-04-10T08:43:41;8.10;;;4.68;;
21038;SDS011;10678;51.002;4.786;2023-04-10T08:46:07;7.75;;;4.70;;
21038;SDS011;10678;51.002;4.786;2023-04-10T08:51:28;6.60;;;3.92;;
21038;SDS011;10678;51.002;4.786;2023-04-10T08:54:01;8.70;;;4.50;;
21038;SDS011;10678;51.002;4.786;2023-04-10T08:56:31;9.45;;;4.50;;
21038;SDS011;10678;51.002;4.786;2023-04-10T08:58:57;7.38;;;4.28;;
21038;SDS011;10678;51.002;4.786;2023-04-10T09:01:23;6.82;;;4.30;;
21038;SDS011;10678;51.002;4.786;2023-04-10T09:03:49;8.35;;;4.13;;
21038;SDS011;10678;51.002;4.786;2023-04-10T09:06:15;7.28;;;4.53;;
21038;SDS011;10678;51.002;4.786;2023-04-10T09:08:41;8.45;;;4.18;;
21038;SDS011;10678;51.002;4.786;2023-04-10T09:11:06;9.68;;;5.00;;
21038;SDS011;10678;51.002;4.786;2023-04-10T09:13:36;7.90;;;4.35;;
21038;SDS011;10678;51.002;4.786;2023-04-10T09:16:03;9.43;;;4.88;;
21038;SDS011;10678;51.002;4.786;2023-04-10T09:18:42;8.40;;;4.57;;
21038;SDS011;10678;51.002;4.786;2023-04-10T09:21:08;7.03;;;4.50;;
21038;SDS011;10678;51.002;4.786;2023-04-10T09:23:35;7.45;;;4.47;;
21038;SDS011;10678;51.002;4.786;2023-04-10T09:26:04;9.40;;;4.57;;
21038;SDS011;10678;51.002;4.786;2023-04-10T09:28:58;7.38;;;4.32;;
21038;SDS011;10678;51.002;4.786;2023-04-10T09:31:29;8.15;;;4.65;;
21038;SDS011;10678;51.002;4.786;2023-04-10T09:34:09;7.00;;;4.00;;
21038;SDS011;10678;51.002;4.786;2023-04-10T09:39:20;7.65;;;4.55;;
21038;SDS011;10678;51.002;4.786;2023-04-10T09:41:47;7.72;;;4.30;;
21038;SDS011;10678;51.002;4.786;2023-04-10T09:44:18;7.00;;;4.10;;
21038;SDS011;10678;51.002;4.786;2023-04-10T09:46:54;6.60;;;3.72;;
21038;SDS011;10678;51.002;4.786;2023-04-10T09:49:19;6.88;;;4.07;;
21038;SDS011;10678;51.002;4.786;2023-04-10T09:51:45;6.95;;;3.97;;
21038;SDS011;10678;51.002;4.786;2023-04-10T09:54:13;7.35;;;4.20;;
21038;SDS011;10678;51.002;4.786;2023-04-10T09:56:39;6.97;;;4.00;;
21038;SDS011;10678;51.002;4.786;2023-04-10T09:59:05;7.65;;;4.63;;
21038;SDS011;10678;51.002;4.786;2023-04-10T10:01:32;6.57;;;4.03;;
21038;SDS011;10678;51.002;4.786;2023-04-10T10:04:04;7.22;;;4.40;;
21038;SDS011;10678;51.002;4.786;2023-04-10T10:06:31;9.05;;;4.35;;
21038;SDS011;10678;51.002;4.786;2023-04-10T10:09:01;6.55;;;3.85;;
21038;SDS011;10678;51.002;4.786;2023-04-10T10:11:28;6.72;;;3.70;;
21038;SDS011;10678;51.002;4.786;2023-04-10T10:13:57;8.18;;;3.92;;
21038;SDS011;10678;51.002;4.786;2023-04-10T10:16:33;6.30;;;3.97;;
21038;SDS011;10678;51.002;4.786;2023-04-10T10:21:29;6.22;;;3.55;;
21038;SDS011;10678;51.002;4.786;2023-04-10T10:23:57;6.35;;;3.75;;
21038;SDS011;10678;51.002;4.786;2023-04-10T10:26:24;6.60;;;3.47;;
21038;SDS011;10678;51.002;4.786;2023-04-10T10:28:51;6.80;;;4.00;;
21038;SDS011;10678;51.002;4.786;2023-04-10T10:31:17;6.80;;;3.88;;
21038;SDS011;10678;51.002;4.786;2023-04-10T10:33:43;6.85;;;4.20;;
21038;SDS011;10678;51.002;4.786;2023-04-10T10:36:11;5.85;;;3.95;;
21038;SDS011;10678;51.002;4.786;2023-04-10T10:38:40;6.90;;;3.80;;
21038;SDS011;10678;51.002;4.786;2023-04-10T10:41:12;6.05;;;3.13;;
21038;SDS011;10678;51.002;4.786;2023-04-10T10:46:31;6.47;;;3.35;;
21038;SDS011;10678;51.002;4.786;2023-04-10T10:49:01;5.65;;;3.10;;
21038;SDS011;10678;51.002;4.786;2023-04-10T10:56:55;7.57;;;3.58;;
21038;SDS011;10678;51.002;4.786;2023-04-10T11:02:18;6.15;;;3.20;;
21038;SDS011;10678;51.002;4.786;2023-04-10T11:04:44;6.85;;;3.03;;
21038;SDS011;10678;51.002;4.786;2023-04-10T11:07:11;6.40;;;3.50;;
21038;SDS011;10678;51.002;4.786;2023-04-10T11:09:48;6.47;;;3.58;;
21038;SDS011;10678;51.002;4.786;2023-04-10T11:12:22;5.32;;;2.88;;
21038;SDS011;10678;51.002;4.786;2023-04-10T11:14:56;5.93;;;2.92;;
21038;SDS011;10678;51.002;4.786;2023-04-10T11:20:14;5.00;;;2.83;;
21038;SDS011;10678;51.002;4.786;2023-04-10T11:28:32;5.07;;;2.60;;
21038;SDS011;10678;51.002;4.786;2023-04-10T11:31:18;5.47;;;2.70;;
21038;SDS011;10678;51.002;4.786;2023-04-10T11:36:21;6.03;;;2.15;;
21038;SDS011;10678;51.002;4.786;2023-04-10T11:41:25;4.72;;;2.20;;
21038;SDS011;10678;51.002;4.786;2023-04-10T11:43:52;7.80;;;2.30;;
21038;SDS011;10678;51.002;4.786;2023-04-10T11:46:18;4.57;;;2.22;;
21038;SDS011;10678;51.002;4.786;2023-04-10T11:48:44;5.55;;;2.42;;
21038;SDS011;10678;51.002;4.786;2023-04-10T11:51:11;4.28;;;2.08;;
21038;SDS011;10678;51.002;4.786;2023-04-10T11:53:38;4.88;;;2.13;;
21038;SDS011;10678;51.002;4.786;2023-04-10T11:56:04;5.53;;;2.17;;
21038;SDS011;10678;51.002;4.786;2023-04-10T11:58:31;4.13;;;1.88;;
21038;SDS011;10678;51.002;4.786;2023-04-10T12:01:06;7.38;;;1.83;;
21038;SDS011;10678;51.002;4.786;2023-04-10T12:03:36;5.20;;;2.33;;
21038;SDS011;10678;51.002;4.786;2023-04-10T12:06:08;9.32;;;2.05;;
21038;SDS011;10678;51.002;4.786;2023-04-10T12:08:42;5.25;;;2.15;;
21038;SDS011;10678;51.002;4.786;2023-04-10T12:11:10;7.88;;;2.03;;
21038;SDS011;10678;51.002;4.786;2023-04-10T12:13:36;4.00;;;2.17;;
21038;SDS011;10678;51.002;4.786;2023-04-10T12:16:10;4.22;;;1.98;;
21038;SDS011;10678;51.002;4.786;2023-04-10T12:18:36;5.85;;;2.45;;
21038;SDS011;10678;51.002;4.786;2023-04-10T12:21:03;4.30;;;2.08;;
21038;SDS011;10678;51.002;4.786;2023-04-10T12:23:29;4.47;;;2.13;;
21038;SDS011;10678;51.002;4.786;2023-04-10T12:26:14;4.68;;;1.90;;
21038;SDS011;10678;51.002;4.786;2023-04-10T12:28:41;4.80;;;2.15;;
21038;SDS011;10678;51.002;4.786;2023-04-10T12:31:17;8.27;;;2.50;;
21038;SDS011;10678;51.002;4.786;2023-04-10T12:33:51;4.30;;;1.75;;
21038;SDS011;10678;51.002;4.786;2023-04-10T12:36:21;4.50;;;2.15;;
21038;SDS011;10678;51.002;4.786;2023-04-10T12:38:48;4.20;;;2.08;;
21038;SDS011;10678;51.002;4.786;2023-04-10T12:41:19;4.93;;;1.88;;
21038;SDS011;10678;51.002;4.786;2023-04-10T12:43:54;3.83;;;1.90;;
21038;SDS011;10678;51.002;4.786;2023-04-10T12:46:37;4.63;;;2.00;;
21038;SDS011;10678;51.002;4.786;2023-04-10T12:49:14;3.83;;;2.05;;
21038;SDS011;10678;51.002;4.786;2023-04-10T12:51:41;5.65;;;2.10;;
21038;SDS011;10678;51.002;4.786;2023-04-10T12:54:07;5.80;;;1.80;;
21038;SDS011;10678;51.002;4.786;2023-04-10T12:56:43;4.88;;;1.58;;
21038;SDS011;10678;51.002;4.786;2023-04-10T12:59:11;4.38;;;2.17;;
21038;SDS011;10678;51.002;4.786;2023-04-10T13:01:37;4.35;;;1.85;;
21038;SDS011;10678;51.002;4.786;2023-04-10T13:04:03;4.15;;;1.70;;
21038;SDS011;10678;51.002;4.786;2023-04-10T13:06:29;4.55;;;1.90;;
21038;SDS011;10678;51.002;4.786;2023-04-10T13:08:54;5.00;;;1.90;;
21038;SDS011;10678;51.002;4.786;2023-04-10T13:11:20;6.30;;;1.88;;
21038;SDS011;10678;51.002;4.786;2023-04-10T13:13:47;6.05;;;2.00;;
21038;SDS011;10678;51.002;4.786;2023-04-10T13:16:13;6.00;;;2.33;;
21038;SDS011;10678;51.002;4.786;2023-04-10T13:18:38;3.90;;;1.80;;
21038;SDS011;10678;51.002;4.786;2023-04-10T13:21:04;4.03;;;1.67;;
21038;SDS011;10678;51.002;4.786;2023-04-10T13:23:29;4.30;;;2.00;;
21038;SDS011;10678;51.002;4.786;2023-04-10T13:25:55;6.22;;;2.00;;
21038;SDS011;10678;51.002;4.786;2023-04-10T13:28:22;4.20;;;1.85;;
21038;SDS011;10678;51.002;4.786;2023-04-10T13:30:48;4.47;;;2.05;;
21038;SDS011;10678;51.002;4.786;2023-04-10T13:33:14;4.88;;;2.17;;
21038;SDS011;10678;51.002;4.786;2023-04-10T13:35:40;4.47;;;1.98;;
21038;SDS011;10678;51.002;4.786;2023-04-10T13:38:05;6.95;;;1.92;;
21038;SDS011;10678;51.002;4.786;2023-04-10T13:40:33;4.55;;;2.17;;
21038;SDS011;10678;51.002;4.786;2023-04-10T13:42:58;6.07;;;1.98;;
21038;SDS011;10678;51.002;4.786;2023-04-10T13:45:24;3.78;;;1.67;;
21038;SDS011;10678;51.002;4.786;2023-04-10T13:47:50;5.32;;;1.75;;
21038;SDS011;10678;51.002;4.786;2023-04-10T13:50:16;4.43;;;1.95;;
21038;SDS011;10678;51.002;4.786;2023-04-10T13:52:41;6.28;;;2.00;;
21038;SDS011;10678;51.002;4.786;2023-04-10T13:55:07;3.75;;;1.63;;
21038;SDS011;10678;51.002;4.786;2023-04-10T13:57:33;5.07;;;2.00;;
21038;SDS011;10678;51.002;4.786;2023-04-10T13:59:58;3.97;;;1.77;;
21038;SDS011;10678;51.002;4.786;2023-04-10T14:02:25;3.70;;;1.77;;
21038;SDS011;10678;51.002;4.786;2023-04-10T14:04:50;3.70;;;1.65;;
21038;SDS011;10678;51.002;4.786;2023-04-10T14:07:17;6.65;;;2.20;;
21038;SDS011;10678;51.002;4.786;2023-04-10T14:09:43;4.82;;;1.90;;
21038;SDS011;10678;51.002;4.786;2023-04-10T14:12:10;5.13;;;1.85;;
21038;SDS011;10678;51.002;4.786;2023-04-10T14:14:35;6.97;;;1.80;;
21038;SDS011;10678;51.002;4.786;2023-04-10T14:17:01;4.95;;;1.70;;
21038;SDS011;10678;51.002;4.786;2023-04-10T14:19:27;3.92;;;1.73;;
21038;SDS011;10678;51.002;4.786;2023-04-10T14:21:52;3.67;;;1.63;;
21038;SDS011;10678;51.002;4.786;2023-04-10T14:24:18;4.57;;;1.60;;
21038;SDS011;10678;51.002;4.786;2023-04-10T14:26:45;3.95;;;1.60;;
21038;SDS011;10678;51.002;4.786;2023-04-10T14:29:10;6.80;;;2.00;;
21038;SDS011;10678;51.002;4.786;2023-04-10T14:31:36;5.72;;;2.20;;
21038;SDS011;10678;51.002;4.786;2023-04-10T14:34:02;5.25;;;1.80;;
21038;SDS011;10678;51.002;4.786;2023-04-10T14:36:27;4.47;;;1.67;;
21038;SDS011;10678;51.002;4.786;2023-04-10T14:38:53;5.45;;;1.85;;
21038;SDS011;10678;51.002;4.786;2023-04-10T14:41:18;4.70;;;1.50;;
21038;SDS011;10678;51.002;4.786;2023-04-10T14:43:44;4.15;;;1.63;;
21038;SDS011;10678;51.002;4.786;2023-04-10T14:46:10;5.88;;;2.13;;
21038;SDS011;10678;51.002;4.786;2023-04-10T14:48:35;4.57;;;1.70;;
21038;SDS011;10678;51.002;4.786;2023-04-10T14:51:01;3.78;;;1.73;;
21038;SDS011;10678;51.002;4.786;2023-04-10T14:53:28;5.93;;;2.15;;
21038;SDS011;10678;51.002;4.786;2023-04-10T14:55:53;2.70;;;1.40;;
21038;SDS011;10678;51.002;4.786;2023-04-10T14:58:19;5.38;;;1.65;;
21038;SDS011;10678;51.002;4.786;2023-04-10T15:00:45;3.63;;;1.50;;
21038;SDS011;10678;51.002;4.786;2023-04-10T15:03:11;6.85;;;1.90;;
21038;SDS011;10678;51.002;4.786;2023-04-10T15:05:36;5.75;;;1.77;;
21038;SDS011;10678;51.002;4.786;2023-04-10T15:08:02;3.42;;;1.65;;
21038;SDS011;10678;51.002;4.786;2023-04-10T15:10:28;4.50;;;1.90;;
21038;SDS011;10678;51.002;4.786;2023-04-10T15:12:54;4.75;;;1.90;;
21038;SDS011;10678;51.002;4.786;2023-04-10T15:15:20;3.90;;;1.50;;
21038;SDS011;10678;51.002;4.786;2023-04-10T15:17:46;4.40;;;1.70;;
21038;SDS011;10678;51.002;4.786;2023-04-10T15:20:11;5.82;;;1.85;;
21038;SDS011;10678;51.002;4.786;2023-04-10T15:22:38;5.20;;;1.50;;
21038;SDS011;10678;51.002;4.786;2023-04-10T15:25:06;3.80;;;1.55;;
21038;SDS011;10678;51.002;4.786;2023-04-10T15:27:33;5.13;;;2.15;;
21038;SDS011;10678;51.002;4.786;2023-04-10T15:29:59;4.68;;;1.67;;
21038;SDS011;10678;51.002;4.786;2023-04-10T15:32:24;5.55;;;1.95;;
21038;SDS011;10678;51.002;4.786;2023-04-10T15:34:50;7.47;;;2.20;;
21038;SDS011;10678;51.002;4.786;2023-04-10T15:37:15;4.53;;;1.70;;